createdAt,value
2023-01-07T00:02:14.250Z,1.50
2023-01-07T00:04:42.249Z,1.50
2023-01-07T00:07:11.894Z,1.50
2023-01-07T00:09:39.991Z,1.40
2023-01-07T00:12:08.032Z,1.50
2023-01-07T00:14:36.171Z,1.50
2023-01-07T00:17:05.545Z,1.50
2023-01-07T00:19:33.459Z,1.50
2023-01-07T00:22:01.357Z,1.50
2023-01-07T00:24:29.300Z,1.40
2023-01-07T00:26:57.220Z,1.40
2023-01-07T00:29:25.377Z,1.40
2023-01-07T00:31:53.655Z,1.40
2023-01-07T00:34:24.079Z,1.40
2023-01-07T00:37:12.099Z,1.40
2023-01-07T00:39:41.906Z,1.40
2023-01-07T00:42:27.667Z,1.40
2023-01-07T00:44:55.657Z,1.40
2023-01-07T00:47:23.671Z,1.50
2023-01-07T00:49:53.015Z,1.50
2023-01-07T00:52:20.988Z,1.50
2023-01-07T00:54:48.912Z,1.50
2023-01-07T00:57:16.834Z,1.50
2023-01-07T00:59:44.877Z,1.60
2023-01-07T01:02:13.001Z,1.50
2023-01-07T01:04:41.012Z,1.50
2023-01-07T01:07:10.402Z,1.50
2023-01-07T01:09:38.465Z,1.50
2023-01-07T01:12:06.621Z,1.50
2023-01-07T01:14:34.614Z,1.50
2023-01-07T01:17:02.561Z,1.50
2023-01-07T01:19:30.532Z,1.50
2023-01-07T01:21:58.536Z,1.50
2023-01-07T01:24:28.025Z,1.50
2023-01-07T01:26:55.999Z,1.50
2023-01-07T01:29:23.991Z,1.50
2023-01-07T01:31:52.296Z,1.40
2023-01-07T01:34:20.566Z,1.50
2023-01-07T01:36:48.566Z,1.50
2023-01-07T01:39:16.539Z,1.50
2023-01-07T01:41:46.266Z,1.50
2023-01-07T01:44:37.893Z,1.50
2023-01-07T01:47:14.960Z,1.50
2023-01-07T01:49:47.582Z,1.50
2023-01-07T01:52:18.305Z,1.50
2023-01-07T01:54:50.825Z,1.50
2023-01-07T01:57:22.372Z,1.60
2023-01-07T01:59:54.198Z,1.50
2023-01-07T02:02:27.014Z,1.50
2023-01-07T02:04:56.236Z,1.60
2023-01-07T02:07:24.328Z,1.50
2023-01-07T02:10:01.203Z,1.60
2023-01-07T02:12:43.377Z,1.60
2023-01-07T02:15:14.029Z,1.60
2023-01-07T02:18:03.589Z,1.60
2023-01-07T02:20:50.554Z,1.60
2023-01-07T02:23:53.752Z,1.60
2023-01-07T02:27:02.032Z,1.60
2023-01-07T02:30:12.525Z,1.60
2023-01-07T02:33:04.276Z,1.60
2023-01-07T02:35:44.852Z,1.60
2023-01-07T02:38:25.502Z,1.60
2023-01-07T02:41:02.482Z,1.60
2023-01-07T02:43:38.871Z,1.60
2023-01-07T02:46:17.731Z,1.70
2023-01-07T02:48:47.518Z,1.70
2023-01-07T02:51:15.704Z,1.70
2023-01-07T02:53:48.870Z,1.70
2023-01-07T02:56:32.763Z,1.70
2023-01-07T02:59:27.607Z,1.70
2023-01-07T03:02:28.928Z,1.70
2023-01-07T03:05:27.138Z,1.70
2023-01-07T03:08:08.680Z,1.70
2023-01-07T03:10:43.580Z,1.70
2023-01-07T03:13:17.631Z,1.70
2023-01-07T03:15:49.273Z,1.80
2023-01-07T03:18:20.194Z,1.70
2023-01-07T03:20:54.546Z,1.80
2023-01-07T03:23:26.098Z,1.80
2023-01-07T03:25:55.617Z,1.80
2023-01-07T03:28:28.584Z,1.80
2023-01-07T03:30:59.446Z,1.80
2023-01-07T03:33:35.363Z,1.80
2023-01-07T03:36:07.912Z,1.80
2023-01-07T03:38:39.027Z,1.80
2023-01-07T03:41:08.151Z,1.90
2023-01-07T03:43:35.087Z,1.90
2023-01-07T03:46:03.182Z,1.90
2023-01-07T03:48:31.489Z,1.90
2023-01-07T03:51:00.103Z,1.90
2023-01-07T03:53:29.529Z,1.90
2023-01-07T03:55:57.506Z,1.90
2023-01-07T03:58:25.569Z,1.90
2023-01-07T04:00:55.897Z,1.90
2023-01-07T04:03:24.381Z,1.90
2023-01-07T04:05:52.315Z,1.90
2023-01-07T04:08:20.748Z,1.90
2023-01-07T04:10:50.177Z,2.10
2023-01-07T04:13:19.137Z,2.20
2023-01-07T04:15:49.604Z,2.20
2023-01-07T04:18:17.753Z,2.10
2023-01-07T04:20:47.730Z,2.00
2023-01-07T04:23:17.864Z,2.00
2023-01-07T04:25:50.903Z,2.00
2023-01-07T04:28:22.960Z,2.00
2023-01-07T04:30:51.819Z,2.00
2023-01-07T04:33:20.304Z,1.90
2023-01-07T04:35:49.042Z,1.90
2023-01-07T04:38:18.304Z,1.90
2023-01-07T04:40:46.399Z,1.80
2023-01-07T04:43:16.035Z,1.90
2023-01-07T04:45:43.995Z,1.90
2023-01-07T04:48:11.942Z,1.90
2023-01-07T04:50:40.246Z,1.80
2023-01-07T04:53:08.964Z,2.00
2023-01-07T04:55:37.186Z,1.90
2023-01-07T04:58:05.332Z,1.90
2023-01-07T05:00:35.236Z,1.90
2023-01-07T05:03:05.069Z,1.90
2023-01-07T05:06:03.507Z,1.90
2023-01-07T05:08:33.387Z,1.80
2023-01-07T05:11:02.107Z,1.90
2023-01-07T05:13:31.745Z,1.90
2023-01-07T05:16:03.202Z,1.90
2023-01-07T05:18:32.564Z,1.80
2023-01-07T05:21:00.515Z,1.90
2023-01-07T05:23:29.526Z,1.90
2023-01-07T05:25:58.879Z,1.90
2023-01-07T05:28:26.842Z,1.80
2023-01-07T05:30:54.894Z,1.90
2023-01-07T05:33:24.924Z,1.90
2023-01-07T05:35:53.118Z,1.90
2023-01-07T05:38:21.912Z,1.80
2023-01-07T05:40:50.729Z,1.80
2023-01-07T05:43:22.961Z,1.80
2023-01-07T05:45:51.354Z,1.80
2023-01-07T05:48:19.462Z,1.90
2023-01-07T05:50:48.842Z,1.80
2023-01-07T05:53:16.838Z,1.80
2023-01-07T05:55:44.929Z,1.90
2023-01-07T05:58:12.857Z,1.90
2023-01-07T06:00:40.865Z,1.90
2023-01-07T06:03:08.879Z,1.90
2023-01-07T06:05:36.845Z,2.00
2023-01-07T06:08:09.100Z,2.00
2023-01-07T06:10:37.436Z,2.00
2023-01-07T06:13:05.364Z,2.00
2023-01-07T06:15:33.298Z,2.00
2023-01-07T06:18:01.261Z,2.00
2023-01-07T06:20:29.800Z,2.10
2023-01-07T06:22:57.743Z,2.10
2023-01-07T06:25:27.101Z,2.10
2023-01-07T06:27:54.978Z,2.20
2023-01-07T06:30:22.947Z,2.20
2023-01-07T06:32:51.038Z,2.20
2023-01-07T06:35:19.046Z,2.20
2023-01-07T06:37:46.915Z,2.20
2023-01-07T06:40:14.837Z,2.20
2023-01-07T06:42:44.261Z,2.20
2023-01-07T06:45:12.600Z,2.30
2023-01-07T06:47:40.590Z,2.30
2023-01-07T06:50:09.271Z,2.30
2023-01-07T06:52:37.185Z,2.30
2023-01-07T06:55:05.573Z,2.30
2023-01-07T06:57:33.549Z,2.30
2023-01-07T07:00:02.946Z,2.30
2023-01-07T07:02:30.972Z,2.40
2023-01-07T07:04:59.015Z,2.40
2023-01-07T07:07:26.919Z,2.40
2023-01-07T07:09:54.879Z,2.40
2023-01-07T07:12:22.892Z,2.50
2023-01-07T07:14:51.000Z,2.50
2023-01-07T07:17:20.238Z,2.50
2023-01-07T07:19:48.247Z,2.60
2023-01-07T07:22:16.216Z,2.70
2023-01-07T07:24:44.284Z,2.70
2023-01-07T07:27:12.190Z,2.80
2023-01-07T07:29:40.213Z,2.80
2023-01-07T07:32:08.731Z,2.80
2023-01-07T07:34:38.026Z,2.90
2023-01-07T07:37:05.946Z,2.90
2023-01-07T07:39:34.439Z,2.90
2023-01-07T07:42:03.808Z,3.10
2023-01-07T07:44:31.733Z,3.10
2023-01-07T07:46:59.649Z,3.20
2023-01-07T07:49:27.569Z,3.20
2023-01-07T07:51:57.094Z,3.20
2023-01-07T07:54:25.193Z,3.30
2023-01-07T07:56:53.121Z,3.30
2023-01-07T07:59:21.161Z,3.40
2023-01-07T08:01:50.402Z,3.40
2023-01-07T08:04:18.444Z,3.50
2023-01-07T08:06:46.509Z,3.50
2023-01-07T08:09:15.758Z,3.60
2023-01-07T08:11:43.776Z,3.60
2023-01-07T08:14:11.724Z,3.70
2023-01-07T08:16:39.804Z,3.70
2023-01-07T08:19:07.765Z,3.70
2023-01-07T08:21:35.842Z,3.70
2023-01-07T08:24:03.868Z,3.80
2023-01-07T08:26:33.212Z,3.90
2023-01-07T08:29:01.158Z,3.90
2023-01-07T08:31:29.264Z,3.90
2023-01-07T08:33:57.332Z,4.00
2023-01-07T08:36:25.318Z,4.00
2023-01-07T08:38:54.131Z,4.10
2023-01-07T08:41:23.198Z,4.20
2023-01-07T08:43:54.176Z,4.20
2023-01-07T08:46:22.306Z,4.20
2023-01-07T08:48:50.277Z,4.30
2023-01-07T08:51:18.447Z,4.30
2023-01-07T08:53:47.917Z,4.30
2023-01-07T08:56:15.923Z,4.40
2023-01-07T08:58:44.099Z,4.40
2023-01-07T09:01:13.535Z,4.40
2023-01-07T09:03:41.646Z,4.50
2023-01-07T09:06:09.956Z,4.50
2023-01-07T09:08:38.391Z,4.60
2023-01-07T09:11:06.703Z,4.60
2023-01-07T09:13:34.693Z,4.70
2023-01-07T09:16:02.803Z,4.80
2023-01-07T09:18:32.180Z,4.80
2023-01-07T09:21:03.239Z,4.80
2023-01-07T09:23:31.327Z,4.80
2023-01-07T09:25:59.350Z,4.90
2023-01-07T09:28:27.941Z,4.90
2023-01-07T09:30:56.972Z,5.00
2023-01-07T09:33:25.087Z,5.20
2023-01-07T09:35:54.674Z,5.50
2023-01-07T09:38:22.605Z,5.60
2023-01-07T09:40:51.241Z,5.70
2023-01-07T09:44:01.006Z,5.60
2023-01-07T09:46:18.543Z,5.60
2023-01-07T09:48:53.095Z,5.60
2023-01-07T09:51:25.695Z,5.60
2023-01-07T09:53:57.263Z,5.60
2023-01-07T09:56:27.954Z,5.50
2023-01-07T09:58:57.029Z,5.50
2023-01-07T10:01:31.117Z,5.40
2023-01-07T10:04:17.865Z,5.40
2023-01-07T10:06:56.486Z,5.40
2023-01-07T10:09:36.993Z,5.30
2023-01-07T10:12:14.441Z,5.30
2023-01-07T10:15:07.991Z,5.30
2023-01-07T10:17:51.625Z,5.30
2023-01-07T10:20:27.604Z,5.30
2023-01-07T10:23:02.760Z,5.30
2023-01-07T10:25:35.196Z,5.40
2023-01-07T10:28:08.435Z,5.40
2023-01-07T10:30:41.931Z,5.40
2023-01-07T10:33:24.987Z,5.40
2023-01-07T10:35:59.798Z,5.40
2023-01-07T10:38:34.889Z,5.50
2023-01-07T10:41:08.051Z,5.50
2023-01-07T10:43:51.460Z,5.50
2023-01-07T10:46:31.812Z,5.50
2023-01-07T10:49:16.183Z,5.60
2023-01-07T10:51:58.384Z,5.50
2023-01-07T10:54:50.434Z,5.60
2023-01-07T10:57:21.149Z,5.70
2023-01-07T10:59:51.640Z,5.70
2023-01-07T11:02:22.903Z,5.70
2023-01-07T11:04:50.962Z,5.70
2023-01-07T11:07:29.370Z,5.80
2023-01-07T11:10:03.230Z,5.70
2023-01-07T11:12:38.135Z,5.70
2023-01-07T11:15:09.886Z,5.70
2023-01-07T11:17:43.134Z,5.70
2023-01-07T11:20:12.354Z,5.70
2023-01-07T11:22:41.897Z,5.70
2023-01-07T11:25:30.904Z,5.80
2023-01-07T11:28:04.195Z,5.80
2023-01-07T11:30:34.259Z,5.80
2023-01-07T11:33:04.751Z,5.80
2023-01-07T11:35:33.296Z,5.90
2023-01-07T11:38:01.816Z,6.10
2023-01-07T11:40:32.858Z,6.20
2023-01-07T11:43:02.734Z,6.30
2023-01-07T11:45:35.660Z,6.40
2023-01-07T11:48:09.015Z,6.30
2023-01-07T11:50:40.158Z,6.20
2023-01-07T11:53:24.604Z,6.10
2023-01-07T11:56:02.565Z,6.00
2023-01-07T11:58:32.627Z,5.90
2023-01-07T12:01:05.749Z,5.90
2023-01-07T12:03:34.027Z,5.90
2023-01-07T12:06:08.514Z,5.80
2023-01-07T12:08:36.819Z,5.70
2023-01-07T12:11:08.788Z,5.80
2023-01-07T12:13:37.723Z,5.90
2023-01-07T12:16:07.843Z,6.00
2023-01-07T12:18:50.410Z,6.20
2023-01-07T12:21:40.104Z,6.40
2023-01-07T12:24:43.056Z,6.30
2023-01-07T12:27:26.022Z,6.40
2023-01-07T12:30:05.176Z,6.50
2023-01-07T12:32:45.649Z,6.50
2023-01-07T12:35:18.984Z,6.40
2023-01-07T12:37:53.426Z,6.30
2023-01-07T12:40:33.262Z,6.30
2023-01-07T12:43:10.200Z,6.30
2023-01-07T12:45:43.591Z,6.20
2023-01-07T12:48:19.721Z,6.20
2023-01-07T12:50:51.140Z,6.10
2023-01-07T12:53:26.036Z,6.00
2023-01-07T12:55:59.292Z,6.00
2023-01-07T12:58:40.823Z,6.00
2023-01-07T13:01:27.881Z,6.00
2023-01-07T13:04:07.721Z,6.00
2023-01-07T13:06:44.536Z,6.00
2023-01-07T13:09:28.176Z,6.00
2023-01-07T13:12:40.600Z,6.10
2023-01-07T13:15:15.648Z,6.10
2023-01-07T13:17:43.825Z,6.30
2023-01-07T13:20:15.754Z,6.40
2023-01-07T13:22:47.583Z,6.50
2023-01-07T13:25:32.962Z,6.50
2023-01-07T13:28:20.186Z,6.60
2023-01-07T13:31:08.499Z,6.70
2023-01-07T13:33:46.217Z,6.70
2023-01-07T13:36:26.294Z,6.70
2023-01-07T13:39:22.439Z,6.60
2023-01-07T13:42:07.707Z,6.60
2023-01-07T13:44:53.672Z,6.60
2023-01-07T13:47:25.722Z,6.50
2023-01-07T13:49:58.419Z,6.40
2023-01-07T13:52:30.109Z,6.30
2023-01-07T13:55:01.428Z,6.30
2023-01-07T13:57:46.920Z,6.20
2023-01-07T14:00:41.006Z,6.20
2023-01-07T14:03:36.527Z,6.20
2023-01-07T14:06:44.220Z,6.10
2023-01-07T14:09:19.657Z,6.10
2023-01-07T14:12:32.963Z,6.00
2023-01-07T14:15:46.000Z,6.00
2023-01-07T14:18:50.546Z,5.90
2023-01-07T14:21:30.482Z,5.90
2023-01-07T14:24:18.955Z,5.80
2023-01-07T14:26:57.837Z,5.80
2023-01-07T14:29:40.718Z,5.80
2023-01-07T14:32:27.465Z,5.80
2023-01-07T14:34:57.817Z,5.70
2023-01-07T14:37:35.410Z,5.70
2023-01-07T14:40:41.771Z,5.70
2023-01-07T14:43:43.328Z,5.60
2023-01-07T14:46:31.567Z,5.60
2023-01-07T14:49:23.554Z,5.60
2023-01-07T14:51:58.498Z,5.60
2023-01-07T14:54:54.548Z,5.50
2023-01-07T14:57:36.273Z,5.50
2023-01-07T15:00:26.620Z,5.50
2023-01-07T15:03:19.214Z,5.50
2023-01-07T15:06:16.518Z,5.50
2023-01-07T15:09:08.045Z,5.50
2023-01-07T15:11:56.006Z,5.50
2023-01-07T15:14:49.597Z,5.50
2023-01-07T15:17:18.192Z,5.40
2023-01-07T15:19:46.674Z,5.40
2023-01-07T15:22:46.905Z,5.40
2023-01-07T15:25:27.888Z,5.40
2023-01-07T15:28:02.166Z,5.40
2023-01-07T15:30:46.849Z,5.40
2023-01-07T15:33:35.362Z,5.40
2023-01-07T15:36:05.580Z,5.40
2023-01-07T15:38:41.283Z,5.30
2023-01-07T15:41:27.629Z,5.30
2023-01-07T15:43:58.146Z,5.30
2023-01-07T15:46:30.004Z,5.30
2023-01-07T15:49:23.439Z,5.30
2023-01-07T15:51:54.513Z,5.20
2023-01-07T15:54:25.271Z,5.20
2023-01-07T15:56:57.356Z,5.20
2023-01-07T15:59:30.253Z,5.20
2023-01-07T16:02:03.694Z,5.30
2023-01-07T16:04:34.132Z,5.20
2023-01-07T16:07:02.577Z,5.20
2023-01-07T16:09:33.365Z,5.20
2023-01-07T16:12:02.173Z,5.20
2023-01-07T16:14:38.009Z,5.20
2023-01-07T16:17:16.112Z,5.20
2023-01-07T16:19:44.130Z,5.20
2023-01-07T16:22:16.431Z,5.20
2023-01-07T16:24:50.284Z,5.20
2023-01-07T16:27:21.672Z,5.20
2023-01-07T16:29:53.897Z,5.20
2023-01-07T16:32:24.303Z,5.20
2023-01-07T16:35:00.799Z,5.30
2023-01-07T16:37:30.274Z,5.20
2023-01-07T16:39:58.320Z,5.30
2023-01-07T16:42:27.535Z,5.30
2023-01-07T16:45:01.596Z,5.20
2023-01-07T16:47:31.128Z,5.10
2023-01-07T16:50:00.365Z,5.00
2023-01-07T16:52:33.860Z,4.90
2023-01-07T16:55:03.769Z,4.70
2023-01-07T16:57:38.891Z,4.70
2023-01-07T17:00:18.460Z,4.50
2023-01-07T17:02:52.109Z,4.40
2023-01-07T17:05:22.156Z,4.30
2023-01-07T17:07:54.812Z,4.20
2023-01-07T17:10:27.071Z,4.10
2023-01-07T17:13:01.291Z,4.00
2023-01-07T17:15:36.587Z,3.90
2023-01-07T17:18:30.296Z,4.00
2023-01-07T17:21:00.637Z,3.90
2023-01-07T17:23:45.647Z,3.90
2023-01-07T17:26:23.993Z,3.90
2023-01-07T17:28:53.457Z,4.00
2023-01-07T17:31:23.511Z,4.00
2023-01-07T17:33:52.107Z,4.10
2023-01-07T17:36:21.510Z,4.10
2023-01-07T17:38:49.607Z,4.20
2023-01-07T17:41:44.896Z,4.30
2023-01-07T17:44:14.676Z,4.40
2023-01-07T17:46:44.084Z,4.40
2023-01-07T17:49:12.415Z,4.50
2023-01-07T17:51:41.972Z,4.50
2023-01-07T17:54:20.198Z,4.50
2023-01-07T17:56:48.456Z,4.50
2023-01-07T17:59:17.185Z,4.50
2023-01-07T18:01:47.128Z,4.60
2023-01-07T18:04:15.190Z,4.70
2023-01-07T18:06:44.031Z,4.70
2023-01-07T18:09:13.746Z,4.70
2023-01-07T18:12:02.129Z,4.80
2023-01-07T18:14:30.193Z,4.90
2023-01-07T18:16:59.552Z,4.90
2023-01-07T18:19:27.929Z,4.90
2023-01-07T18:21:55.920Z,5.00
2023-01-07T18:24:24.220Z,5.00
2023-01-07T18:26:52.676Z,5.10
2023-01-07T18:29:21.813Z,5.10
2023-01-07T18:31:49.925Z,5.10
2023-01-07T18:34:19.411Z,5.10
2023-01-07T18:36:47.679Z,5.00
2023-01-07T18:39:19.534Z,5.00
2023-01-07T18:41:50.104Z,5.00
2023-01-07T18:44:20.954Z,5.00
2023-01-07T18:46:49.274Z,5.00
2023-01-07T18:49:17.216Z,5.00
2023-01-07T18:51:48.592Z,5.00
2023-01-07T18:54:17.319Z,5.10
2023-01-07T18:56:46.317Z,5.00
2023-01-07T18:59:15.053Z,5.00
2023-01-07T19:01:43.369Z,5.00
2023-01-07T19:04:11.552Z,5.00
2023-01-07T19:06:39.755Z,5.00
2023-01-07T19:09:09.252Z,5.00
2023-01-07T19:11:38.494Z,5.00
2023-01-07T19:14:06.703Z,5.00
2023-01-07T19:16:34.889Z,5.10
2023-01-07T19:19:03.435Z,5.10
2023-01-07T19:21:31.446Z,5.10
2023-01-07T19:24:03.574Z,5.10
2023-01-07T19:26:33.816Z,5.10
2023-01-07T19:29:03.259Z,5.10
2023-01-07T19:31:31.523Z,5.10
2023-01-07T19:33:59.749Z,5.10
2023-01-07T19:36:34.361Z,5.10
2023-01-07T19:39:02.545Z,5.20
2023-01-07T19:41:32.936Z,5.30
2023-01-07T19:44:01.746Z,5.30
2023-01-07T19:46:29.755Z,5.40
2023-01-07T19:48:57.817Z,5.50
2023-01-07T19:51:25.882Z,5.50
2023-01-07T19:53:53.905Z,5.60
2023-01-07T19:56:22.058Z,5.60
2023-01-07T19:58:53.796Z,5.70
2023-01-07T20:01:24.398Z,5.70
2023-01-07T20:03:53.134Z,5.70
2023-01-07T20:06:23.291Z,5.80
2023-01-07T20:08:53.896Z,5.80
2023-01-07T20:11:22.413Z,5.80
2023-01-07T20:13:52.348Z,5.80
2023-01-07T20:16:22.592Z,5.80
2023-01-07T20:18:52.240Z,5.70
2023-01-07T20:21:23.173Z,5.60
2023-01-07T20:23:51.376Z,5.50
2023-01-07T20:26:21.447Z,5.50
2023-01-07T20:28:51.250Z,5.60
2023-01-07T20:31:21.564Z,5.70
2023-01-07T20:33:50.455Z,5.70
2023-01-07T20:36:20.945Z,5.60
2023-01-07T20:38:49.356Z,5.60
2023-01-07T20:41:21.127Z,5.60
2023-01-07T20:43:54.188Z,5.60
2023-01-07T20:46:22.789Z,5.50
2023-01-07T20:48:51.440Z,5.50
2023-01-07T20:51:20.022Z,5.50
2023-01-07T20:53:48.687Z,5.50
2023-01-07T20:56:19.026Z,5.50
2023-01-07T20:58:47.494Z,5.60
2023-01-07T21:01:18.817Z,5.60
2023-01-07T21:03:47.109Z,5.50
2023-01-07T21:06:18.054Z,5.50
2023-01-07T21:08:47.244Z,5.50
2023-01-07T21:11:17.206Z,5.50
2023-01-07T21:13:45.453Z,5.50
2023-01-07T21:16:14.016Z,5.50
2023-01-07T21:18:43.698Z,5.50
2023-01-07T21:21:13.509Z,5.40
2023-01-07T21:23:41.919Z,5.40
2023-01-07T21:26:10.724Z,5.40
2023-01-07T21:28:38.762Z,5.40
2023-01-07T21:31:11.250Z,5.40
2023-01-07T21:33:40.422Z,5.40
2023-01-07T21:36:11.386Z,5.50
2023-01-07T21:38:39.682Z,5.50
2023-01-07T21:41:08.610Z,5.50
2023-01-07T21:43:37.211Z,5.50
2023-01-07T21:46:06.638Z,5.40
2023-01-07T21:48:34.744Z,5.40
2023-01-07T21:51:04.257Z,5.40
2023-01-07T21:53:34.721Z,5.50
2023-01-07T21:56:07.152Z,5.50
2023-01-07T21:58:35.857Z,5.40
2023-01-07T22:01:04.241Z,5.50
2023-01-07T22:03:32.480Z,5.50
2023-01-07T22:06:02.532Z,5.50
2023-01-07T22:08:33.491Z,5.50
2023-01-07T22:11:01.512Z,5.50
2023-01-07T22:13:29.432Z,5.50
2023-01-07T22:15:57.519Z,5.50
2023-01-07T22:18:25.721Z,5.50
2023-01-07T22:20:55.706Z,5.50
2023-01-07T22:23:24.157Z,5.50
2023-01-07T22:25:53.457Z,5.60
2023-01-07T22:28:23.977Z,5.60
2023-01-07T22:30:55.250Z,5.60
2023-01-07T22:33:23.522Z,5.60
2023-01-07T22:35:52.252Z,5.60
2023-01-07T22:38:22.612Z,5.60
2023-01-07T22:40:50.861Z,5.50
2023-01-07T22:43:23.985Z,5.50
2023-01-07T22:45:55.832Z,5.50
2023-01-07T22:48:27.785Z,5.40
2023-01-07T22:51:01.754Z,5.40
2023-01-07T22:53:30.637Z,5.40
2023-01-07T22:55:59.920Z,5.30
2023-01-07T22:58:29.211Z,5.40
2023-01-07T23:01:10.792Z,5.30
2023-01-07T23:03:38.908Z,5.30
2023-01-07T23:06:07.488Z,5.30
2023-01-07T23:08:35.474Z,5.30
2023-01-07T23:11:04.063Z,5.30
2023-01-07T23:13:33.546Z,5.30
2023-01-07T23:16:02.669Z,5.30
2023-01-07T23:18:30.940Z,5.30
2023-01-07T23:20:59.508Z,5.30
2023-01-07T23:23:27.482Z,5.30
2023-01-07T23:25:55.442Z,5.30
2023-01-07T23:28:23.455Z,5.30
2023-01-07T23:30:52.751Z,5.30
2023-01-07T23:33:20.706Z,5.30
2023-01-07T23:35:48.690Z,5.30
2023-01-07T23:38:16.617Z,5.30
2023-01-07T23:40:44.504Z,5.30
2023-01-07T23:43:12.415Z,5.40
2023-01-07T23:45:40.424Z,5.30
2023-01-07T23:48:09.725Z,5.30
2023-01-07T23:50:37.716Z,5.30
2023-01-07T23:53:05.651Z,5.30
2023-01-07T23:55:33.602Z,5.30
2023-01-07T23:58:01.509Z,5.30
